createdAt,value
2019-02-12T00:00:48.202Z,78.16
2019-02-12T00:01:48.187Z,77.68
2019-02-12T00:02:48.193Z,77.78
2019-02-12T00:03:48.165Z,77.68
2019-02-12T00:04:48.154Z,77.95
2019-02-12T00:05:48.142Z,77.58
2019-02-12T00:06:48.131Z,77.12
2019-02-12T00:07:48.150Z,77.75
2019-02-12T00:08:48.141Z,77.33
2019-02-12T00:09:48.100Z,77.44
2019-02-12T00:10:48.092Z,77.68
2019-02-12T00:11:48.077Z,77.75
2019-02-12T00:12:48.067Z,77.75
2019-02-12T00:13:48.058Z,77.68
2019-02-12T00:14:48.068Z,77.54
2019-02-12T00:15:48.037Z,77.02
2019-02-12T00:16:48.021Z,77.75
2019-02-12T00:17:48.018Z,77.85
2019-02-12T00:18:48.047Z,77.54
2019-02-12T00:19:47.992Z,78.20
2019-02-12T00:20:47.981Z,78.58
2019-02-12T00:21:47.971Z,78.09
2019-02-12T00:22:47.961Z,77.89
2019-02-12T00:23:47.951Z,78.58
2019-02-12T00:24:47.963Z,79.03
2019-02-12T00:25:47.925Z,79.03
2019-02-12T00:26:47.917Z,79.03
2019-02-12T00:27:47.908Z,79.13
2019-02-12T00:28:47.899Z,79.24
2019-02-12T00:29:47.901Z,79.34
2019-02-12T00:30:47.871Z,79.76
2019-02-12T00:31:47.915Z,79.44
2019-02-12T00:32:47.851Z,80.38
2019-02-12T00:33:47.841Z,80.28
2019-02-12T00:34:48.103Z,80.49
2019-02-12T00:35:47.847Z,80.38
2019-02-12T00:36:47.807Z,80.38
2019-02-12T00:37:47.812Z,80.28
2019-02-12T00:38:47.788Z,80.69
2019-02-12T00:39:47.775Z,80.69
2019-02-12T00:40:47.790Z,80.49
2019-02-12T00:41:47.755Z,80.69
2019-02-12T00:42:47.750Z,80.69
2019-02-12T00:43:47.733Z,80.80
2019-02-12T00:44:47.764Z,81.01
2019-02-12T00:45:47.739Z,81.01
2019-02-12T00:46:47.702Z,81.42
2019-02-12T00:47:47.689Z,82.04
2019-02-12T00:48:47.680Z,81.94
2019-02-12T00:49:47.667Z,81.63
2019-02-12T00:50:47.659Z,82.15
2019-02-12T00:51:47.679Z,81.94
2019-02-12T00:52:47.636Z,81.84
2019-02-12T00:53:47.625Z,81.94
2019-02-12T00:54:47.613Z,82.04
2019-02-12T00:55:47.607Z,82.56
2019-02-12T00:56:47.591Z,82.35
2019-02-12T00:57:47.609Z,82.67
2019-02-12T00:58:47.577Z,82.67
2019-02-12T00:59:47.567Z,82.98
2019-02-12T01:00:47.550Z,82.91
2019-02-12T01:01:47.566Z,82.77
2019-02-12T01:02:47.535Z,83.08
2019-02-12T01:03:47.519Z,83.81
2019-02-12T01:04:47.508Z,83.50
2019-02-12T01:05:47.494Z,84.22
2019-02-12T01:06:47.484Z,84.47
2019-02-12T01:07:47.500Z,84.05
2019-02-12T01:08:47.471Z,84.12
2019-02-12T01:09:47.452Z,84.53
2019-02-12T01:10:47.445Z,84.64
2019-02-12T01:11:47.428Z,84.58
2019-02-12T01:12:47.445Z,84.89
2019-02-12T01:13:47.407Z,85.20
2019-02-12T01:14:47.397Z,84.58
2019-02-12T01:15:47.392Z,84.89
2019-02-12T01:16:47.385Z,84.78
2019-02-12T01:17:47.367Z,85.30
2019-02-12T01:18:47.395Z,85.20
2019-02-12T01:19:47.350Z,85.30
2019-02-12T01:20:47.334Z,85.36
2019-02-12T01:21:47.325Z,85.20
2019-02-12T01:22:47.342Z,85.41
2019-02-12T01:23:47.326Z,85.72
2019-02-12T01:24:47.298Z,86.24
2019-02-12T01:25:47.280Z,86.13
2019-02-12T01:26:47.268Z,85.93
2019-02-12T01:27:47.275Z,86.34
2019-02-12T01:28:47.267Z,86.24
2019-02-12T01:29:47.244Z,86.13
2019-02-12T01:30:47.223Z,85.61
2019-02-12T01:31:47.223Z,86.34
2019-02-12T01:32:47.204Z,86.24
2019-02-12T01:33:47.218Z,86.34
2019-02-12T01:34:47.186Z,86.44
2019-02-12T01:35:47.198Z,86.24
2019-02-12T01:36:47.161Z,86.55
2019-02-12T01:37:47.155Z,87.27
2019-02-12T01:38:47.140Z,86.96
2019-02-12T01:39:47.128Z,86.96
2019-02-12T01:40:47.150Z,86.90
2019-02-12T01:41:47.134Z,86.76
2019-02-12T01:42:47.098Z,86.96
2019-02-12T01:43:47.085Z,87.59
2019-02-12T01:44:47.074Z,87.59
2019-02-12T01:45:47.065Z,87.59
2019-02-12T01:46:47.068Z,87.73
2019-02-12T01:47:47.069Z,87.59
2019-02-12T01:48:47.032Z,87.07
2019-02-12T01:49:47.021Z,87.38
2019-02-12T01:50:47.011Z,87.48
2019-02-12T01:51:47.001Z,87.21
2019-02-12T01:52:47.018Z,87.73
2019-02-12T01:53:47.004Z,87.21
2019-02-12T01:54:46.972Z,87.90
2019-02-12T01:55:46.956Z,87.69
2019-02-12T01:56:46.948Z,87.63
2019-02-12T01:57:46.936Z,87.94
2019-02-12T01:58:46.947Z,87.73
2019-02-12T01:59:46.933Z,88.15
2019-02-12T02:00:46.903Z,88.67
2019-02-12T02:01:46.895Z,89.08
2019-02-12T02:02:46.881Z,88.87
2019-02-12T02:03:46.897Z,88.62
2019-02-12T02:04:46.889Z,88.77
2019-02-12T02:05:46.870Z,88.87
2019-02-12T02:06:46.838Z,89.29
2019-02-12T02:07:46.827Z,89.39
2019-02-12T02:08:46.817Z,89.39
2019-02-12T02:09:46.807Z,89.39
2019-02-12T02:10:46.824Z,89.39
2019-02-12T02:11:46.784Z,89.50
2019-02-12T02:12:46.776Z,89.39
2019-02-12T02:13:46.781Z,89.60
2019-02-12T02:14:46.753Z,89.29
2019-02-12T02:15:46.784Z,89.29
2019-02-12T02:16:46.729Z,89.18
2019-02-12T02:17:46.719Z,88.98
2019-02-12T02:18:46.710Z,88.87
2019-02-12T02:19:46.699Z,88.87
2019-02-12T02:20:46.687Z,88.87
2019-02-12T02:21:46.703Z,89.18
2019-02-12T02:22:46.666Z,89.08
2019-02-12T02:23:46.658Z,89.08
2019-02-12T02:24:46.654Z,89.18
2019-02-12T02:25:46.634Z,89.50
2019-02-12T02:26:46.651Z,89.50
2019-02-12T02:27:46.615Z,89.50
2019-02-12T02:28:46.650Z,89.50
2019-02-12T02:29:46.589Z,89.39
2019-02-12T02:30:46.581Z,89.60
2019-02-12T02:31:46.586Z,89.39
2019-02-12T02:32:46.563Z,89.50
2019-02-12T02:33:46.585Z,89.60
2019-02-12T02:34:46.538Z,89.50
2019-02-12T02:35:46.530Z,89.50
2019-02-12T02:36:46.556Z,89.60
2019-02-12T02:37:46.505Z,89.70
2019-02-12T02:38:46.494Z,89.70
2019-02-12T02:39:46.483Z,89.60
2019-02-12T02:40:46.477Z,89.60
2019-02-12T02:41:46.463Z,90.02
2019-02-12T02:42:46.478Z,89.70
2019-02-12T02:43:46.443Z,89.50
2019-02-12T02:44:46.433Z,90.02
2019-02-12T02:45:46.419Z,89.60
2019-02-12T02:46:46.421Z,90.12
2019-02-12T02:47:46.401Z,90.12
2019-02-12T02:48:46.413Z,90.44
2019-02-12T02:49:46.379Z,90.33
2019-02-12T02:50:46.365Z,90.02
2019-02-12T02:51:53.656Z,90.16
2019-02-12T02:52:47.344Z,90.02
2019-02-12T02:53:46.361Z,90.37
2019-02-12T02:54:46.357Z,90.58
2019-02-12T02:55:46.317Z,90.37
2019-02-12T02:56:46.307Z,90.79
2019-02-12T02:57:46.297Z,90.69
2019-02-12T02:58:46.284Z,90.69
2019-02-12T02:59:46.272Z,90.26
2019-02-12T03:00:46.286Z,91.20
2019-02-12T03:01:46.248Z,91.35
2019-02-12T03:02:46.239Z,91.10
2019-02-12T03:03:46.234Z,91.20
2019-02-12T03:04:46.243Z,91.25
2019-02-12T03:05:46.231Z,91.14
2019-02-12T03:06:46.196Z,90.93
2019-02-12T03:07:46.187Z,91.77
2019-02-12T03:08:46.180Z,91.77
2019-02-12T03:09:46.170Z,91.35
2019-02-12T03:10:46.179Z,91.35
2019-02-12T03:11:46.171Z,91.60
2019-02-12T03:12:46.133Z,91.81
2019-02-12T03:13:46.122Z,91.56
2019-02-12T03:14:46.114Z,92.33
2019-02-12T03:15:46.099Z,91.91
2019-02-12T03:16:46.136Z,92.29
2019-02-12T03:17:46.087Z,92.33
2019-02-12T03:18:46.069Z,92.39
2019-02-12T03:19:46.054Z,92.22
2019-02-12T03:20:46.052Z,92.22
2019-02-12T03:21:46.036Z,92.33
2019-02-12T03:22:46.050Z,91.91
2019-02-12T03:23:46.015Z,91.91
2019-02-12T03:24:46.008Z,92.12
2019-02-12T03:25:45.993Z,92.06
2019-02-12T03:26:45.990Z,92.54
2019-02-12T03:27:45.985Z,92.58
2019-02-12T03:28:45.968Z,92.27
2019-02-12T03:29:45.953Z,92.95
2019-02-12T03:30:45.965Z,92.79
2019-02-12T03:31:45.972Z,92.68
2019-02-12T03:32:45.918Z,92.89
2019-02-12T03:33:45.919Z,93.31
2019-02-12T03:34:45.899Z,92.79
2019-02-12T03:35:45.913Z,93.10
2019-02-12T03:36:45.878Z,93.10
2019-02-12T03:37:45.892Z,92.79
2019-02-12T03:38:45.857Z,92.89
2019-02-12T03:39:45.845Z,93.66
2019-02-12T03:40:45.839Z,93.31
2019-02-12T03:41:45.821Z,93.41
2019-02-12T03:42:45.816Z,93.20
2019-02-12T03:43:45.829Z,93.10
2019-02-12T03:44:45.793Z,93.31
2019-02-12T03:45:45.783Z,93.46
2019-02-12T03:46:45.778Z,93.10
2019-02-12T03:47:45.766Z,93.46
2019-02-12T03:48:45.784Z,93.14
2019-02-12T03:49:45.747Z,93.24
2019-02-12T03:50:45.725Z,93.35
2019-02-12T03:51:45.715Z,93.66
2019-02-12T03:52:45.712Z,93.41
2019-02-12T03:53:45.703Z,93.46
2019-02-12T03:54:45.707Z,93.10
2019-02-12T03:55:45.674Z,93.35
2019-02-12T03:56:45.668Z,93.35
2019-02-12T03:57:45.654Z,93.66
2019-02-12T03:58:45.688Z,93.77
2019-02-12T03:59:45.631Z,94.08
2019-02-12T04:00:45.624Z,94.08
2019-02-12T04:01:45.625Z,93.87
2019-02-12T04:02:45.598Z,94.24
2019-02-12T04:03:45.589Z,94.14
2019-02-12T04:04:45.618Z,94.24
2019-02-12T04:05:45.568Z,94.24
2019-02-12T04:06:45.564Z,94.14
2019-02-12T04:07:45.547Z,93.83
2019-02-12T04:08:45.536Z,93.83
2019-02-12T04:09:45.522Z,93.83
2019-02-12T04:10:45.546Z,93.31
2019-02-12T04:11:45.543Z,93.31
2019-02-12T04:12:45.491Z,93.31
2019-02-12T04:13:45.483Z,93.31
2019-02-12T04:14:45.498Z,93.62
2019-02-12T04:15:45.464Z,93.62
2019-02-12T04:16:45.478Z,93.31
2019-02-12T04:17:45.440Z,93.31
2019-02-12T04:18:45.436Z,93.73
2019-02-12T04:19:45.421Z,93.05
2019-02-12T04:20:45.411Z,92.95
2019-02-12T04:21:45.420Z,93.05
2019-02-12T04:22:45.386Z,93.16
2019-02-12T04:23:45.430Z,93.05
2019-02-12T04:24:45.372Z,92.74
2019-02-12T04:25:45.354Z,92.74
2019-02-12T04:26:45.345Z,92.64
2019-02-12T04:27:45.362Z,92.12
2019-02-12T04:28:45.339Z,91.71
2019-02-12T04:29:45.324Z,92.12
2019-02-12T04:30:45.303Z,92.29
2019-02-12T04:31:45.288Z,91.66
2019-02-12T04:32:45.305Z,92.02
2019-02-12T04:33:45.307Z,92.18
2019-02-12T04:34:45.274Z,92.08
2019-02-12T04:35:45.248Z,92.08
2019-02-12T04:36:45.235Z,91.97
2019-02-12T04:37:45.229Z,91.66
2019-02-12T04:38:45.215Z,91.66
2019-02-12T04:39:45.238Z,91.66
2019-02-12T04:40:45.198Z,91.87
2019-02-12T04:41:45.179Z,91.25
2019-02-12T04:42:45.169Z,91.25
2019-02-12T04:43:45.162Z,91.46
2019-02-12T04:44:45.151Z,91.56
2019-02-12T04:45:45.151Z,91.77
2019-02-12T04:46:45.155Z,91.77
2019-02-12T04:47:45.122Z,91.87
2019-02-12T04:48:45.142Z,91.62
2019-02-12T04:49:45.098Z,91.77
2019-02-12T04:50:45.083Z,91.66
2019-02-12T04:51:45.077Z,91.77
2019-02-12T04:52:45.067Z,91.35
2019-02-12T04:53:45.058Z,91.66
2019-02-12T04:54:45.069Z,91.77
2019-02-12T04:55:45.036Z,91.72
2019-02-12T04:56:45.024Z,91.72
2019-02-12T04:57:45.011Z,91.77
2019-02-12T04:58:45.001Z,91.46
2019-02-12T04:59:44.991Z,90.93
2019-02-12T05:00:45.005Z,91.10
2019-02-12T05:01:44.969Z,91.14
2019-02-12T05:02:44.959Z,91.31
2019-02-12T05:03:44.945Z,91.10
2019-02-12T05:04:44.951Z,91.10
2019-02-12T05:05:44.924Z,91.41
2019-02-12T05:06:44.931Z,91.20
2019-02-12T05:07:44.905Z,90.89
2019-02-12T05:08:44.893Z,91.41
2019-02-12T05:09:44.883Z,90.79
2019-02-12T05:10:44.877Z,90.79
2019-02-12T05:11:44.883Z,91.10
2019-02-12T05:12:44.853Z,91.20
2019-02-12T05:13:44.849Z,90.58
2019-02-12T05:14:44.828Z,91.10
2019-02-12T05:15:44.823Z,90.69
2019-02-12T05:16:44.806Z,90.58
2019-02-12T05:17:44.814Z,90.79
2019-02-12T05:18:44.787Z,90.47
2019-02-12T05:19:44.774Z,90.69
2019-02-12T05:20:44.765Z,90.69
2019-02-12T05:21:44.753Z,90.26
2019-02-12T05:22:44.770Z,91.14
2019-02-12T05:23:44.732Z,91.31
2019-02-12T05:24:44.725Z,91.31
2019-02-12T05:25:44.713Z,90.79
2019-02-12T05:26:44.704Z,90.69
2019-02-12T05:27:44.728Z,90.69
2019-02-12T05:28:44.712Z,91.25
2019-02-12T05:29:44.670Z,91.35
2019-02-12T05:30:44.660Z,90.69
2019-02-12T05:31:44.646Z,90.52
2019-02-12T05:32:44.637Z,91.35
2019-02-12T05:33:44.631Z,91.14
2019-02-12T05:34:44.641Z,91.35
2019-02-12T05:35:44.632Z,91.25
2019-02-12T05:36:44.601Z,91.35
2019-02-12T05:37:44.582Z,91.25
2019-02-12T05:38:44.605Z,91.14
2019-02-12T05:39:44.588Z,91.25
2019-02-12T05:40:44.554Z,91.14
2019-02-12T05:41:44.545Z,90.93
2019-02-12T05:42:44.540Z,91.14
2019-02-12T05:43:44.527Z,91.46
2019-02-12T05:44:44.538Z,91.35
2019-02-12T05:45:44.516Z,91.35
2019-02-12T05:46:44.490Z,91.14
2019-02-12T05:47:44.488Z,91.25
2019-02-12T05:48:44.469Z,91.10
2019-02-12T05:49:44.465Z,91.35
2019-02-12T05:50:44.459Z,91.25
2019-02-12T05:51:44.437Z,91.25
2019-02-12T05:52:53.936Z,91.14
2019-02-12T05:53:45.412Z,91.14
2019-02-12T05:54:44.420Z,91.25
2019-02-12T05:55:44.404Z,91.14
2019-02-12T05:56:44.381Z,91.46
2019-02-12T05:57:44.368Z,91.04
2019-02-12T05:58:44.365Z,91.66
2019-02-12T05:59:46.974Z,91.77
2019-02-12T06:00:44.383Z,91.77
2019-02-12T06:01:44.331Z,91.46
2019-02-12T06:02:44.317Z,91.66
2019-02-12T06:03:44.309Z,91.10
2019-02-12T06:04:44.303Z,91.35
2019-02-12T06:05:44.286Z,91.14
2019-02-12T06:06:44.285Z,91.10
2019-02-12T06:07:44.282Z,91.52
2019-02-12T06:08:44.248Z,91.35
2019-02-12T06:09:44.244Z,91.62
2019-02-12T06:10:44.229Z,91.77
2019-02-12T06:11:44.240Z,91.77
2019-02-12T06:12:44.208Z,91.46
2019-02-12T06:13:44.204Z,91.31
2019-02-12T06:14:44.189Z,91.35
2019-02-12T06:15:44.174Z,91.87
2019-02-12T06:16:44.175Z,91.35
2019-02-12T06:17:44.157Z,91.35
2019-02-12T06:18:44.158Z,91.77
2019-02-12T06:19:44.136Z,91.56
2019-02-12T06:20:44.129Z,91.77
2019-02-12T06:21:44.114Z,91.77
2019-02-12T06:22:44.111Z,91.56
2019-02-12T06:23:44.130Z,92.18
2019-02-12T06:24:44.081Z,92.29
2019-02-12T06:25:44.076Z,91.97
2019-02-12T06:26:44.059Z,92.29
2019-02-12T06:27:44.050Z,92.70
2019-02-12T06:28:44.053Z,92.60
2019-02-12T06:29:44.029Z,92.80
2019-02-12T06:30:44.147Z,93.12
2019-02-12T06:31:44.006Z,92.91
2019-02-12T06:32:43.994Z,93.01
2019-02-12T06:33:44.008Z,92.80
2019-02-12T06:34:43.975Z,93.43
2019-02-12T06:35:43.967Z,93.33
2019-02-12T06:36:43.953Z,93.05
2019-02-12T06:37:43.963Z,93.37
2019-02-12T06:38:43.933Z,93.58
2019-02-12T06:39:43.946Z,93.27
2019-02-12T06:40:43.910Z,93.23
2019-02-12T06:41:43.903Z,93.58
2019-02-12T06:42:43.910Z,93.23
2019-02-12T06:43:43.878Z,94.06
2019-02-12T06:44:43.873Z,94.31
2019-02-12T06:45:43.885Z,93.89
2019-02-12T06:46:43.852Z,93.68
2019-02-12T06:47:43.839Z,93.79
2019-02-12T06:48:43.843Z,93.58
2019-02-12T06:49:43.812Z,93.89
2019-02-12T06:50:43.829Z,94.41
2019-02-12T06:51:43.794Z,94.41
2019-02-12T06:52:43.786Z,93.89
2019-02-12T06:53:43.774Z,93.79
2019-02-12T06:54:43.760Z,94.20
2019-02-12T06:55:43.774Z,94.51
2019-02-12T06:56:43.742Z,94.35
2019-02-12T06:57:43.729Z,94.14
2019-02-12T06:58:43.719Z,94.35
2019-02-12T06:59:43.715Z,94.35
2019-02-12T07:00:43.726Z,94.04
2019-02-12T07:01:43.701Z,94.35
2019-02-12T07:02:43.684Z,94.14
2019-02-12T07:03:43.670Z,94.14
2019-02-12T07:04:43.682Z,94.14
2019-02-12T07:05:43.644Z,94.04
2019-02-12T07:06:43.647Z,94.14
2019-02-12T07:07:43.624Z,94.14
2019-02-12T07:08:43.624Z,94.35
2019-02-12T07:09:43.603Z,94.24
2019-02-12T07:10:43.592Z,94.66
2019-02-12T07:11:43.618Z,94.45
2019-02-12T07:12:43.579Z,94.35
2019-02-12T07:13:43.558Z,94.56
2019-02-12T07:14:43.555Z,94.56
2019-02-12T07:15:43.544Z,94.24
2019-02-12T07:16:43.534Z,94.76
2019-02-12T07:17:43.540Z,94.56
2019-02-12T07:18:43.512Z,94.45
2019-02-12T07:19:43.522Z,94.45
2019-02-12T07:20:43.483Z,94.62
2019-02-12T07:21:43.472Z,94.56
2019-02-12T07:22:43.485Z,94.20
2019-02-12T07:23:43.456Z,94.41
2019-02-12T07:24:43.466Z,94.51
2019-02-12T07:25:43.437Z,94.51
2019-02-12T07:26:43.429Z,94.35
2019-02-12T07:27:43.410Z,94.56
2019-02-12T07:28:43.426Z,94.31
2019-02-12T07:29:43.389Z,94.20
2019-02-12T07:30:43.391Z,94.04
2019-02-12T07:31:43.367Z,94.10
2019-02-12T07:32:43.361Z,94.10
2019-02-12T07:33:43.361Z,94.10
2019-02-12T07:34:43.345Z,94.41
2019-02-12T07:35:43.348Z,94.62
2019-02-12T07:36:43.311Z,93.99
2019-02-12T07:37:43.301Z,94.31
2019-02-12T07:38:43.289Z,94.31
2019-02-12T07:39:43.294Z,94.10
2019-02-12T07:40:43.267Z,94.20
2019-02-12T07:41:43.283Z,94.51
2019-02-12T07:42:43.282Z,94.20
2019-02-12T07:43:43.240Z,93.99
2019-02-12T07:44:43.226Z,94.10
2019-02-12T07:45:43.219Z,94.10
2019-02-12T07:46:43.207Z,94.20
2019-02-12T07:47:43.196Z,94.31
2019-02-12T07:48:45.199Z,93.89
2019-02-12T07:49:43.173Z,94.20
2019-02-12T07:50:43.173Z,94.20
2019-02-12T07:51:43.153Z,94.10
2019-02-12T07:52:43.140Z,94.31
2019-02-12T07:53:43.147Z,94.06
2019-02-12T07:54:43.117Z,94.51
2019-02-12T07:55:43.117Z,93.79
2019-02-12T07:56:43.105Z,93.74
2019-02-12T07:57:50.125Z,93.68
2019-02-12T07:58:43.085Z,93.64
2019-02-12T07:59:43.084Z,93.64
2019-02-12T08:00:43.063Z,94.06
2019-02-12T08:01:43.043Z,93.95
2019-02-12T08:02:43.035Z,94.16
2019-02-12T08:03:43.051Z,93.95
2019-02-12T08:04:43.017Z,93.85
2019-02-12T08:05:43.006Z,93.23
2019-02-12T08:06:42.992Z,93.43
2019-02-12T08:07:42.982Z,93.43
2019-02-12T08:08:42.971Z,93.12
2019-02-12T08:09:42.984Z,93.23
2019-02-12T08:10:42.948Z,93.12
2019-02-12T08:11:42.944Z,93.23
2019-02-12T08:12:42.930Z,93.33
2019-02-12T08:13:42.917Z,93.33
2019-02-12T08:14:42.930Z,93.01
2019-02-12T08:15:42.921Z,93.23
2019-02-12T08:16:42.891Z,93.43
2019-02-12T08:17:42.877Z,93.01
2019-02-12T08:18:42.865Z,93.12
2019-02-12T08:19:42.854Z,93.18
2019-02-12T08:20:42.869Z,93.23
2019-02-12T08:21:42.830Z,93.39
2019-02-12T08:22:42.825Z,92.97
2019-02-12T08:23:42.805Z,93.18
2019-02-12T08:24:42.808Z,93.60
2019-02-12T08:25:42.826Z,93.07
2019-02-12T08:26:42.837Z,92.97
2019-02-12T08:27:42.763Z,92.76
2019-02-12T08:28:42.757Z,92.76
2019-02-12T08:29:42.743Z,92.86
2019-02-12T08:30:42.735Z,92.76
2019-02-12T08:31:42.732Z,92.97
2019-02-12T08:32:42.716Z,92.97
2019-02-12T08:33:42.699Z,92.86
2019-02-12T08:34:42.691Z,92.45
2019-02-12T08:35:42.691Z,92.14
2019-02-12T08:36:42.698Z,92.03
2019-02-12T08:37:42.658Z,92.10
2019-02-12T08:38:42.646Z,91.62
2019-02-12T08:39:42.644Z,91.78
2019-02-12T08:40:42.624Z,92.20
2019-02-12T08:41:42.613Z,92.10
2019-02-12T08:42:42.614Z,91.58
2019-02-12T08:43:42.838Z,91.99
2019-02-12T08:44:42.581Z,91.99
2019-02-12T08:45:42.570Z,91.68
2019-02-12T08:46:42.576Z,91.53
2019-02-12T08:47:42.577Z,91.89
2019-02-12T08:48:42.538Z,91.22
2019-02-12T08:49:42.555Z,91.33
2019-02-12T08:50:42.515Z,91.53
2019-02-12T08:51:42.510Z,91.22
2019-02-12T08:52:42.496Z,91.43
2019-02-12T08:53:50.292Z,90.91
2019-02-12T08:54:43.512Z,90.91
2019-02-12T08:55:42.463Z,90.39
2019-02-12T08:56:42.449Z,90.50
2019-02-12T08:57:42.443Z,90.70
2019-02-12T08:58:42.431Z,90.81
2019-02-12T08:59:42.418Z,90.60
2019-02-12T09:00:42.436Z,90.19
2019-02-12T09:01:42.398Z,90.77
2019-02-12T09:02:42.395Z,90.45
2019-02-12T09:03:42.373Z,90.45
2019-02-12T09:04:42.422Z,90.45
2019-02-12T09:05:42.362Z,90.45
2019-02-12T09:06:42.349Z,89.94
2019-02-12T09:07:42.333Z,89.69
2019-02-12T09:08:42.324Z,89.89
2019-02-12T09:09:42.310Z,90.31
2019-02-12T09:10:42.340Z,90.83
2019-02-12T09:11:42.288Z,90.00
2019-02-12T09:12:42.287Z,89.79
2019-02-12T09:13:42.273Z,90.31
2019-02-12T09:14:42.261Z,89.65
2019-02-12T09:15:42.283Z,89.44
2019-02-12T09:16:42.240Z,89.54
2019-02-12T09:17:42.228Z,89.34
2019-02-12T09:18:42.216Z,89.44
2019-02-12T09:19:42.220Z,89.03
2019-02-12T09:20:42.199Z,89.23
2019-02-12T09:21:42.217Z,89.13
2019-02-12T09:22:42.174Z,88.92
2019-02-12T09:23:42.164Z,89.23
2019-02-12T09:24:42.159Z,88.46
2019-02-12T09:25:42.141Z,88.51
2019-02-12T09:26:42.130Z,88.67
2019-02-12T09:27:42.145Z,88.46
2019-02-12T09:28:42.109Z,88.61
2019-02-12T09:29:42.099Z,88.61
2019-02-12T09:30:42.111Z,88.36
2019-02-12T09:31:42.084Z,89.19
2019-02-12T09:32:42.064Z,88.57
2019-02-12T09:33:42.067Z,89.09
2019-02-12T09:34:42.043Z,89.09
2019-02-12T09:35:42.031Z,89.19
2019-02-12T09:36:42.023Z,89.09
2019-02-12T09:37:42.017Z,88.78
2019-02-12T09:38:42.046Z,88.88
2019-02-12T09:39:41.988Z,88.15
2019-02-12T09:40:41.981Z,88.26
2019-02-12T09:41:41.975Z,88.98
2019-02-12T09:42:41.955Z,88.98
2019-02-12T09:43:41.958Z,88.42
2019-02-12T09:44:41.964Z,88.42
2019-02-12T09:45:41.927Z,87.49
2019-02-12T09:46:41.922Z,87.45
2019-02-12T09:47:41.913Z,87.04
2019-02-12T09:48:41.906Z,87.24
2019-02-12T09:49:41.910Z,87.55
2019-02-12T09:50:41.905Z,87.14
2019-02-12T09:51:41.872Z,86.47
2019-02-12T09:52:41.850Z,86.89
2019-02-12T09:53:41.838Z,85.71
2019-02-12T09:54:41.851Z,85.50
2019-02-12T09:55:41.851Z,85.68
2019-02-12T09:56:41.803Z,84.99
2019-02-12T09:57:41.792Z,85.16
2019-02-12T09:58:41.790Z,84.43
2019-02-12T09:59:41.771Z,84.60
2019-02-12T10:00:41.763Z,84.45
2019-02-12T10:01:41.783Z,83.01
2019-02-12T10:02:41.742Z,83.11
2019-02-12T10:03:41.730Z,83.04
2019-02-12T10:04:41.721Z,82.52
2019-02-12T10:05:41.714Z,81.59
2019-02-12T10:06:41.728Z,81.56
2019-02-12T10:07:41.767Z,81.24
2019-02-12T10:08:41.676Z,80.52
2019-02-12T10:09:41.663Z,80.32
2019-02-12T10:10:41.656Z,80.52
2019-02-12T10:11:41.672Z,79.49
2019-02-12T10:12:41.631Z,80.42
2019-02-12T10:13:41.648Z,80.66
2019-02-12T10:14:41.611Z,79.73
2019-02-12T10:15:41.600Z,80.76
2019-02-12T10:16:41.629Z,81.42
2019-02-12T10:17:41.581Z,81.52
2019-02-12T10:18:41.567Z,81.63
2019-02-12T10:19:41.560Z,81.84
2019-02-12T10:20:41.546Z,82.08
2019-02-12T10:21:41.536Z,82.60
2019-02-12T10:22:41.552Z,82.50
2019-02-12T10:23:41.516Z,82.39
2019-02-12T10:24:41.511Z,83.01
2019-02-12T10:25:41.493Z,82.53
2019-02-12T10:26:41.483Z,82.22
2019-02-12T10:27:41.486Z,83.09
2019-02-12T10:28:48.578Z,83.19
2019-02-12T10:29:42.450Z,83.91
2019-02-12T10:30:41.438Z,84.01
2019-02-12T10:31:41.454Z,83.91
2019-02-12T10:32:41.418Z,84.01
2019-02-12T10:33:41.411Z,83.81
2019-02-12T10:34:41.394Z,83.50
2019-02-12T10:35:41.381Z,84.22
2019-02-12T10:36:41.409Z,84.43
2019-02-12T10:37:41.362Z,83.91
2019-02-12T10:38:41.358Z,84.33
2019-02-12T10:39:41.346Z,84.64
2019-02-12T10:40:41.327Z,84.33
2019-02-12T10:41:41.322Z,84.64
2019-02-12T10:42:41.334Z,84.64
2019-02-12T10:43:41.323Z,84.64
2019-02-12T10:44:41.303Z,84.12
2019-02-12T10:45:41.275Z,84.01
2019-02-12T10:46:41.265Z,84.43
2019-02-12T10:47:41.251Z,84.22
2019-02-12T10:48:41.268Z,84.22
2019-02-12T10:49:41.230Z,84.64
2019-02-12T10:50:41.219Z,84.64
2019-02-12T10:51:41.208Z,83.98
2019-02-12T10:52:41.200Z,84.12
2019-02-12T10:53:41.199Z,84.22
2019-02-12T10:54:41.178Z,83.98
2019-02-12T10:55:41.184Z,84.60
2019-02-12T10:56:41.157Z,84.45
2019-02-12T10:57:41.143Z,84.29
2019-02-12T10:58:41.140Z,83.53
2019-02-12T10:59:41.124Z,83.32
2019-02-12T11:00:41.139Z,83.11
2019-02-12T11:01:41.099Z,83.84
2019-02-12T11:02:41.088Z,82.74
2019-02-12T11:03:41.082Z,83.77
2019-02-12T11:04:41.077Z,83.87
2019-02-12T11:05:41.077Z,83.63
2019-02-12T11:06:41.047Z,83.05
2019-02-12T11:07:41.035Z,82.32
2019-02-12T11:08:41.023Z,82.64
2019-02-12T11:09:41.013Z,83.56
2019-02-12T11:10:41.044Z,83.09
2019-02-12T11:11:40.998Z,83.91
2019-02-12T11:12:40.980Z,83.91
2019-02-12T11:13:40.967Z,84.08
2019-02-12T11:14:40.957Z,84.01
2019-02-12T11:15:40.949Z,83.67
2019-02-12T11:16:40.961Z,83.87
2019-02-12T11:17:40.926Z,84.60
2019-02-12T11:18:40.921Z,84.81
2019-02-12T11:19:40.902Z,83.56
2019-02-12T11:20:40.891Z,84.08
2019-02-12T11:21:40.908Z,83.98
2019-02-12T11:22:40.869Z,84.29
2019-02-12T11:23:40.860Z,83.77
2019-02-12T11:24:40.848Z,83.98
2019-02-12T11:25:40.839Z,84.19
2019-02-12T11:26:40.856Z,84.60
2019-02-12T11:27:40.815Z,83.77
2019-02-12T11:28:40.832Z,83.56
2019-02-12T11:29:40.824Z,83.87
2019-02-12T11:30:40.785Z,83.84
2019-02-12T11:31:40.773Z,84.15
2019-02-12T11:32:40.768Z,84.15
2019-02-12T11:33:40.754Z,83.94
2019-02-12T11:34:40.773Z,83.73
2019-02-12T11:35:40.729Z,84.25
2019-02-12T11:36:40.715Z,84.15
2019-02-12T11:37:40.711Z,84.25
2019-02-12T11:38:40.698Z,84.15
2019-02-12T11:39:40.684Z,83.53
2019-02-12T11:40:40.703Z,84.25
2019-02-12T11:41:40.664Z,84.15
2019-02-12T11:42:40.650Z,84.05
2019-02-12T11:43:40.642Z,84.00
2019-02-12T11:44:40.656Z,83.22
2019-02-12T11:45:40.618Z,83.22
2019-02-12T11:46:40.610Z,82.08
2019-02-12T11:47:40.611Z,82.70
2019-02-12T11:48:40.593Z,83.36
2019-02-12T11:49:40.604Z,84.19
2019-02-12T11:50:40.564Z,83.56
2019-02-12T11:51:40.554Z,84.29
2019-02-12T11:52:40.544Z,83.67
2019-02-12T11:53:40.540Z,84.70
2019-02-12T11:54:43.760Z,84.56
2019-02-12T11:55:41.116Z,84.81
2019-02-12T11:56:40.498Z,83.98
2019-02-12T11:57:40.490Z,84.08
2019-02-12T11:58:40.477Z,84.19
2019-02-12T11:59:40.506Z,84.29
2019-02-12T12:00:40.463Z,83.98
2019-02-12T12:01:40.445Z,84.39
2019-02-12T12:02:42.114Z,84.29
2019-02-12T12:03:40.431Z,84.70
2019-02-12T12:04:40.415Z,84.60
2019-02-12T12:05:40.415Z,84.39
2019-02-12T12:06:40.392Z,84.50
2019-02-12T12:07:40.379Z,84.91
2019-02-12T12:08:40.368Z,85.63
2019-02-12T12:09:40.360Z,85.36
2019-02-12T12:10:40.383Z,86.19
2019-02-12T12:11:40.341Z,87.33
2019-02-12T12:12:40.327Z,87.12
2019-02-12T12:13:40.320Z,86.81
2019-02-12T12:14:40.303Z,87.12
2019-02-12T12:15:40.295Z,87.64
2019-02-12T12:16:40.312Z,87.64
2019-02-12T12:17:40.272Z,87.43
2019-02-12T12:18:40.264Z,87.85
2019-02-12T12:19:40.259Z,87.85
2019-02-12T12:20:40.247Z,88.16
2019-02-12T12:21:40.246Z,88.26
2019-02-12T12:22:40.221Z,87.95
2019-02-12T12:23:40.216Z,87.33
2019-02-12T12:24:40.210Z,86.71
2019-02-12T12:25:40.192Z,87.33
2019-02-12T12:26:40.176Z,87.23
2019-02-12T12:27:40.186Z,87.39
2019-02-12T12:28:40.188Z,87.29
2019-02-12T12:29:40.152Z,87.18
2019-02-12T12:30:40.135Z,87.39
2019-02-12T12:31:40.121Z,87.08
2019-02-12T12:32:40.108Z,86.77
2019-02-12T12:33:40.141Z,87.15
2019-02-12T12:34:40.090Z,85.94
2019-02-12T12:35:40.076Z,86.11
2019-02-12T12:36:40.071Z,85.80
2019-02-12T12:37:40.058Z,86.21
2019-02-12T12:38:40.045Z,86.21
2019-02-12T12:39:40.061Z,85.91
2019-02-12T12:40:40.030Z,84.97
2019-02-12T12:41:40.023Z,85.08
2019-02-12T12:42:40.009Z,85.70
2019-02-12T12:43:40.021Z,85.28
2019-02-12T12:44:39.987Z,84.87
2019-02-12T12:45:39.968Z,84.97
2019-02-12T12:46:39.956Z,84.66
2019-02-12T12:47:39.962Z,84.77
2019-02-12T12:48:40.121Z,85.14
2019-02-12T12:49:40.131Z,84.52
2019-02-12T12:50:39.915Z,84.52
2019-02-12T12:51:39.910Z,84.00
2019-02-12T12:52:39.900Z,84.11